Time;durP1;ratioP1;P1;durP2;ratioP2;P2;SDS_P1;SDS_P2;PMS_P1;PMS_P2;Temp;Humidity;BMP_temperature;BMP_pressure;BME280_temperature;BME280_humidity;BME280_pressure;Samples;Min_cycle;Max_cycle;Signal;HPM_P1;HPM_P2
2022/09/15 00:01:45;;;;;;;53.63;27.87;;;;;12.20;100250.00;;;;13060128;22;20236;-71
2022/09/15 00:06:46;;;;;;;53.87;28.07;;;;;12.20;100257.00;;;;13062946;22;20183;-72
2022/09/15 00:11:47;;;;;;;56.83;29.10;;;;;12.20;100258.00;;;;13041595;22;20163;-72
2022/09/15 00:16:48;;;;;;;67.73;30.50;;;;;12.20;100253.00;;;;13040778;22;20651;-72
2022/09/15 00:21:50;;;;;;;58.33;28.90;;;;;12.20;100236.00;;;;13062125;22;20183;-72
2022/09/15 00:26:51;;;;;;;54.67;28.10;;;;;12.20;100242.00;;;;13114861;22;20238;-72
2022/09/15 00:31:52;;;;;;;51.33;26.63;;;;;12.10;100248.00;;;;13039482;22;20164;-71
2022/09/15 00:36:54;;;;;;;55.97;27.30;;;;;12.00;100247.00;;;;13066457;22;20175;-71
2022/09/15 00:41:55;;;;;;;62.57;27.20;;;;;11.90;100247.00;;;;13040696;22;20757;-72
2022/09/15 00:46:56;;;;;;;46.80;25.77;;;;;11.80;100243.00;;;;13041338;22;20167;-72
2022/09/15 00:52:33;;;;;;;55.20;28.00;;;;;11.70;100246.00;;;;13021092;22;20641;-72
2022/09/15 00:57:58;;;;;;;57.93;29.53;;;;;11.80;100242.00;;;;13013157;22;20179;-72
2022/09/15 01:03:00;;;;;;;60.10;28.80;;;;;11.70;100247.00;;;;13088255;22;20693;-72
2022/09/15 01:08:10;;;;;;;78.73;31.57;;;;;11.60;100238.00;;;;13088836;22;20566;-73
2022/09/15 01:13:13;;;;;;;71.00;28.93;;;;;11.60;100254.00;;;;13062195;22;20164;-73
2022/09/15 01:18:29;;;;;;;57.13;27.90;;;;;11.60;100241.00;;;;13062099;22;20794;-73
2022/09/15 01:23:57;;;;;;;65.23;30.43;;;;;11.50;100254.00;;;;13113857;22;20159;-73
2022/09/15 01:29:35;;;;;;;72.00;29.73;;;;;11.60;100247.00;;;;13040088;22;20592;-73
2022/09/15 01:34:43;;;;;;;64.83;29.07;;;;;11.50;100252.00;;;;13041202;22;20175;-73
2022/09/15 01:39:49;;;;;;;62.47;30.37;;;;;11.50;100253.00;;;;13038454;22;20188;-73
2022/09/15 01:45:00;;;;;;;67.77;32.33;;;;;11.50;100250.00;;;;13014735;22;20171;-73
2022/09/15 01:50:12;;;;;;;74.33;31.97;;;;;11.50;100256.00;;;;13062645;22;20170;-73
2022/09/15 01:55:38;;;;;;;68.27;29.93;;;;;11.60;100255.00;;;;13116222;22;20162;-73
2022/09/15 02:00:48;;;;;;;66.80;30.60;;;;;11.70;100253.00;;;;13086949;22;20183;-73
2022/09/15 02:06:01;;;;;;;69.27;32.83;;;;;11.80;100264.00;;;;13085526;22;20174;-73
2022/09/15 02:11:17;;;;;;;73.63;34.23;;;;;11.90;100270.00;;;;13062150;22;20891;-73
2022/09/15 02:16:20;;;;;;;73.97;36.17;;;;;12.00;100266.00;;;;13039845;22;20167;-73
2022/09/15 02:21:43;;;;;;;80.37;34.10;;;;;12.00;100266.00;;;;13086633;22;20214;-73
2022/09/15 02:26:48;;;;;;;70.90;31.83;;;;;12.00;100259.00;;;;13015135;22;20263;-73
2022/09/15 02:31:52;;;;;;;80.40;35.23;;;;;12.10;100262.00;;;;13064088;22;20262;-73
2022/09/15 02:36:54;;;;;;;71.60;33.30;;;;;12.20;100266.00;;;;13088383;22;20233;-73
2022/09/15 02:41:55;;;;;;;68.57;33.60;;;;;12.20;100253.00;;;;13042488;22;20233;-74
2022/09/15 02:46:58;;;;;;;76.50;35.13;;;;;12.30;100249.00;;;;13068101;22;20731;-73
2022/09/15 02:51:59;;;;;;;73.03;35.97;;;;;12.30;100248.00;;;;13118847;22;20333;-73
2022/09/15 02:57:00;;;;;;;72.43;34.20;;;;;12.40;100249.00;;;;13068965;22;20728;-73
2022/09/15 03:02:02;;;;;;;72.27;34.57;;;;;12.50;100249.00;;;;13065559;22;20229;-73
2022/09/15 03:07:04;;;;;;;73.67;33.97;;;;;12.50;100246.00;;;;13042575;22;20274;-73
2022/09/15 03:12:05;;;;;;;84.60;36.10;;;;;12.60;100248.00;;;;13066981;22;20205;-73
2022/09/15 03:17:07;;;;;;;82.47;36.10;;;;;12.70;100249.00;;;;13038113;22;20163;-73
2022/09/15 03:22:09;;;;;;;89.13;35.13;;;;;12.70;100245.00;;;;13043638;22;20199;-73
2022/09/15 03:27:10;;;;;;;82.83;37.40;;;;;12.70;100256.00;;;;13063889;22;20243;-74
2022/09/15 03:32:11;;;;;;;87.37;35.20;;;;;12.70;100253.00;;;;13090422;22;20889;-73
2022/09/15 03:37:13;;;;;;;78.33;35.07;;;;;12.80;100249.00;;;;13114914;22;20189;-73
2022/09/15 03:42:14;;;;;;;71.00;32.87;;;;;12.80;100243.00;;;;13016477;22;20270;-73
2022/09/15 03:47:16;;;;;;;79.50;33.23;;;;;12.80;100250.00;;;;13088578;22;20159;-73
2022/09/15 03:52:17;;;;;;;74.93;33.63;;;;;12.80;100258.00;;;;13063291;22;20209;-73
2022/09/15 03:57:18;;;;;;;77.17;34.07;;;;;12.80;100251.00;;;;13041600;22;20197;-73
2022/09/15 04:02:19;;;;;;;76.97;32.70;;;;;12.90;100249.00;;;;13067963;22;20205;-73
2022/09/15 04:07:21;;;;;;;68.23;31.67;;;;;12.90;100235.00;;;;13060092;22;20229;-73
2022/09/15 04:12:22;;;;;;;76.57;34.47;;;;;12.90;100245.00;;;;13042043;22;20734;-73
2022/09/15 04:17:23;;;;;;;81.93;38.40;;;;;12.90;100253.00;;;;13063281;22;20209;-73
2022/09/15 04:22:24;;;;;;;79.27;37.00;;;;;12.80;100250.00;;;;13015677;22;20191;-73
2022/09/15 04:27:26;;;;;;;69.17;34.83;;;;;12.80;100241.00;;;;13041510;22;20278;-73
2022/09/15 04:32:28;;;;;;;65.00;31.70;;;;;12.80;100251.00;;;;13061045;22;20164;-73
2022/09/15 04:37:30;;;;;;;61.77;32.33;;;;;12.70;100250.00;;;;13066775;22;20258;-74
2022/09/15 04:42:31;;;;;;;56.57;30.67;;;;;12.70;100250.00;;;;13088952;22;20188;-74
2022/09/15 04:47:33;;;;;;;56.03;29.30;;;;;12.50;100252.00;;;;13088808;22;20170;-74
2022/09/15 04:52:34;;;;;;;55.50;28.93;;;;;12.40;100262.00;;;;13087962;22;20170;-74
2022/09/15 04:57:35;;;;;;;55.83;28.03;;;;;12.30;100255.00;;;;13062696;22;20483;-74
2022/09/15 05:02:36;;;;;;;52.43;27.03;;;;;12.20;100259.00;;;;13092154;22;20197;-74
2022/09/15 05:07:37;;;;;;;53.53;28.40;;;;;12.10;100266.00;;;;13040985;22;20191;-74
2022/09/15 05:12:39;;;;;;;51.30;26.57;;;;;12.00;100262.00;;;;13067357;22;20172;-74
2022/09/15 05:17:40;;;;;;;61.17;27.57;;;;;11.90;100274.00;;;;13090039;22;20163;-74
2022/09/15 05:22:41;;;;;;;63.13;29.27;;;;;11.80;100277.00;;;;13015990;22;20183;-74
2022/09/15 05:27:42;;;;;;;54.23;27.37;;;;;11.70;100266.00;;;;13062892;22;20205;-74
2022/09/15 05:32:44;;;;;;;58.97;27.83;;;;;11.70;100285.00;;;;13086529;22;20175;-74
2022/09/15 05:37:45;;;;;;;61.20;29.23;;;;;11.70;100285.00;;;;13087414;22;20636;-73
2022/09/15 05:42:46;;;;;;;57.10;28.60;;;;;11.70;100286.00;;;;13088638;22;20190;-74
2022/09/15 05:47:47;;;;;;;62.10;29.70;;;;;11.80;100286.00;;;;13014880;22;20216;-74
2022/09/15 05:52:51;;;;;;;63.33;30.80;;;;;11.90;100284.00;;;;12989419;22;20761;-74
2022/09/15 05:57:52;;;;;;;57.40;31.40;;;;;12.00;100280.00;;;;13062071;22;20202;-74
2022/09/15 06:02:54;;;;;;;67.67;31.53;;;;;12.10;100288.00;;;;13014316;22;20197;-74
2022/09/15 06:07:55;;;;;;;75.90;35.70;;;;;12.20;100288.00;;;;13085156;22;20215;-74
2022/09/15 06:12:56;;;;;;;78.97;35.23;;;;;12.30;100294.00;;;;13071823;22;20223;-74
2022/09/15 06:17:58;;;;;;;74.80;36.30;;;;;12.40;100299.00;;;;13072943;22;20171;-74
2022/09/15 06:22:59;;;;;;;78.60;36.97;;;;;12.50;100309.00;;;;13073491;22;20781;-74
2022/09/15 06:28:00;;;;;;;74.73;37.97;;;;;12.70;100324.00;;;;13021846;22;20167;-74
2022/09/15 06:33:02;;;;;;;79.77;37.33;;;;;12.80;100319.00;;;;13067088;22;20190;-74
2022/09/15 06:38:03;;;;;;;83.80;39.23;;;;;13.20;100331.00;;;;13093946;22;20156;-74
2022/09/15 06:43:04;;;;;;;86.07;42.77;;;;;13.70;100319.00;;;;13047209;22;20175;-74
2022/09/15 06:48:05;;;;;;;86.27;42.20;;;;;13.90;100332.00;;;;13022393;22;20175;-74
2022/09/15 06:53:28;;;;;;;77.23;40.77;;;;;14.10;100338.00;;;;13069526;22;20594;-74
2022/09/15 06:58:30;;;;;;;70.33;40.10;;;;;14.30;100343.00;;;;13093875;22;20544;-74
2022/09/15 07:03:31;;;;;;;80.60;39.03;;;;;14.60;100341.00;;;;13092789;22;20631;-74
2022/09/15 07:08:32;;;;;;;74.50;38.47;;;;;14.80;100358.00;;;;13045266;22;20257;-74
2022/09/15 07:13:34;;;;;;;70.53;39.67;;;;;14.90;100361.00;;;;13086970;22;20170;-74
2022/09/15 07:18:35;;;;;;;63.57;37.80;;;;;15.10;100365.00;;;;13081582;22;20183;-75
2022/09/15 07:23:43;;;;;;;70.20;38.67;;;;;15.10;100375.00;;;;13089832;22;20163;-75
2022/09/15 07:29:04;;;;;;;66.27;36.00;;;;;15.20;100377.00;;;;13108796;22;20421;-74
2022/09/15 07:34:06;;;;;;;63.80;37.80;;;;;15.30;100380.00;;;;13066461;22;20262;-74
2022/09/15 07:39:07;;;;;;;61.13;36.83;;;;;15.50;100388.00;;;;13054722;22;20183;-74
2022/09/15 07:44:11;;;;;;;67.37;35.03;;;;;15.70;100391.00;;;;13066638;22;20179;-74
2022/09/15 07:49:13;;;;;;;58.13;34.08;;;;;15.90;100390.00;;;;13064681;22;20729;-74
2022/09/15 07:54:14;;;;;;;58.38;34.67;;;;;16.10;100391.00;;;;13059723;22;20160;-74
2022/09/15 07:59:21;;;;;;;56.17;33.80;;;;;16.30;100398.00;;;;13088149;22;20180;-74
2022/09/15 08:04:22;;;;;;;53.05;34.10;;;;;16.50;100403.00;;;;13064743;22;20159;-74
2022/09/15 08:09:24;;;;;;;63.60;33.50;;;;;16.60;100407.00;;;;13063304;22;20180;-74
2022/09/15 08:14:25;;;;;;;46.25;30.52;;;;;16.60;100401.00;;;;13088654;22;20285;-74
2022/09/15 08:19:27;;;;;;;49.22;31.77;;;;;16.70;100408.00;;;;13087471;22;20244;-74
2022/09/15 08:24:28;;;;;;;44.58;31.08;;;;;17.40;100399.00;;;;13065528;22;20175;-74
2022/09/15 08:29:29;;;;;;;41.13;31.15;;;;;17.90;100406.00;;;;13039197;22;20176;-75
2022/09/15 08:34:31;;;;;;;39.47;25.50;;;;;18.30;100409.00;;;;13086969;22;20570;-75
2022/09/15 08:39:32;;;;;;;33.95;25.85;;;;;19.10;100409.00;;;;13012783;22;20201;-75
2022/09/15 08:44:48;;;;;;;32.63;21.42;;;;;19.50;100422.00;;;;13039574;22;20168;-75
2022/09/15 08:50:03;;;;;;;26.75;18.02;;;;;19.20;100437.00;;;;13037370;22;20257;-75
2022/09/15 08:55:13;;;;;;;24.83;17.48;;;;;19.40;100448.00;;;;13061532;22;20160;-75
2022/09/15 09:00:15;;;;;;;20.33;15.32;;;;;19.10;100450.00;;;;13064318;22;20205;-75
2022/09/15 09:05:28;;;;;;;20.98;15.02;;;;;18.80;100463.00;;;;13088544;22;20298;-76
2022/09/15 09:10:41;;;;;;;25.30;15.65;;;;;18.40;100479.00;;;;13065877;22;20192;-75
2022/09/15 09:16:10;;;;;;;20.17;13.77;;;;;18.20;100488.00;;;;13059582;22;20674;-75
2022/09/15 09:21:11;;;;;;;20.83;14.50;;;;;18.20;100482.00;;;;13061348;22;20187;-75
2022/09/15 09:26:13;;;;;;;22.00;14.40;;;;;18.20;100481.00;;;;13088474;22;20422;-75
2022/09/15 09:31:19;;;;;;;27.33;15.32;;;;;18.60;100471.00;;;;13039617;22;20251;-75
2022/09/15 09:36:20;;;;;;;23.75;13.80;;;;;18.70;100467.00;;;;13065097;22;20179;-75
2022/09/15 09:41:34;;;;;;;21.95;12.10;;;;;19.40;100457.00;;;;13058795;22;20290;-75
2022/09/15 09:46:35;;;;;;;23.17;11.80;;;;;20.60;100448.00;;;;13060420;22;20558;-75
2022/09/15 09:51:54;;;;;;;14.23;8.43;;;;;21.00;100463.00;;;;13040729;22;20195;-76
2022/09/15 09:57:15;;;;;;;14.40;7.78;;;;;20.90;100456.00;;;;13063443;22;20208;-76
2022/09/15 10:02:20;;;;;;;13.13;5.43;;;;;20.40;100463.00;;;;13064595;22;20191;-76
2022/09/15 10:07:25;;;;;;;8.20;4.10;;;;;20.50;100460.00;;;;13089238;22;20179;-76
2022/09/15 10:12:32;;;;;;;9.65;5.25;;;;;20.60;100452.00;;;;13016673;22;20557;-76
2022/09/15 10:17:39;;;;;;;10.65;4.78;;;;;20.70;100458.00;;;;13066176;22;20251;-76
2022/09/15 10:22:41;;;;;;;5.97;3.67;;;;;21.10;100447.00;;;;13063631;22;20184;-76
2022/09/15 10:27:42;;;;;;;9.27;2.53;;;;;21.60;100459.00;;;;13088579;22;20163;-76
2022/09/15 10:32:43;;;;;;;7.07;2.85;;;;;22.40;100458.00;;;;13086948;22;20174;-76
2022/09/15 10:37:58;;;;;;;4.90;2.38;;;;;23.20;100470.00;;;;13087643;22;20160;-76
2022/09/15 10:43:10;;;;;;;3.85;2.10;;;;;24.00;100467.00;;;;13040081;22;20192;-77
2022/09/15 10:48:56;;;;;;;5.07;2.63;;;;;23.30;100484.00;;;;13040560;22;20195;-76
2022/09/15 10:54:45;;;;;;;4.65;2.10;;;;;21.50;100462.00;;;;13085835;22;20187;-76
2022/09/15 11:00:22;;;;;;;8.13;2.60;;;;;20.10;100464.00;;;;13088595;22;20716;-76
2022/09/15 11:05:46;;;;;;;10.02;3.30;;;;;19.50;100467.00;;;;13037040;22;20172;-76
2022/09/15 11:11:06;;;;;;;6.90;3.67;;;;;19.80;100464.00;;;;13087776;22;20183;-76
2022/09/15 11:16:23;;;;;;;7.60;3.92;;;;;19.90;100475.00;;;;13089294;22;20201;-76
2022/09/15 11:21:33;;;;;;;9.82;3.28;;;;;19.40;100479.00;;;;13041478;22;20279;-76
2022/09/15 11:26:42;;;;;;;8.95;3.42;;;;;19.10;100480.00;;;;13063124;22;20193;-76
2022/09/15 11:31:49;;;;;;;9.27;3.35;;;;;19.10;100481.00;;;;13066626;22;20182;-75
2022/09/15 11:36:58;;;;;;;10.10;2.55;;;;;19.00;100486.00;;;;13116463;22;20198;-77
2022/09/15 11:42:21;;;;;;;6.47;1.58;;;;;18.90;100498.00;;;;13042001;22;20824;-76
2022/09/15 11:47:35;;;;;;;8.07;2.00;;;;;19.60;100510.00;;;;13090644;22;20164;-76
2022/09/15 11:53:12;;;;;;;3.58;1.42;;;;;20.60;100513.00;;;;13042004;22;20179;-77
2022/09/15 11:58:25;;;;;;;5.88;1.90;;;;;20.50;100534.00;;;;13042297;22;20202;-76
2022/09/15 12:03:34;;;;;;;9.68;2.30;;;;;20.10;100539.00;;;;13088479;22;20238;-76
2022/09/15 12:08:42;;;;;;;4.15;2.17;;;;;19.20;100547.00;;;;13037400;22;20258;-76
2022/09/15 12:13:44;;;;;;;4.50;1.88;;;;;19.50;100535.00;;;;13063528;22;20164;-76
2022/09/15 12:19:01;;;;;;;6.57;1.52;;;;;19.70;100530.00;;;;13013780;22;20191;-76
2022/09/15 12:24:22;;;;;;;3.45;1.17;;;;;20.20;100531.00;;;;13063108;22;20159;-76
2022/09/15 12:29:26;;;;;;;4.75;1.00;;;;;21.50;100528.00;;;;13041122;22;20171;-76
2022/09/15 12:34:30;;;;;;;2.78;1.63;;;;;22.60;100527.00;;;;13042318;22;20246;-76
2022/09/15 12:39:42;;;;;;;2.95;1.20;;;;;22.40;100528.00;;;;13088343;22;20680;-77
2022/09/15 12:44:48;;;;;;;4.53;1.27;;;;;21.70;100536.00;;;;13014373;22;20718;-76
2022/09/15 12:49:52;;;;;;;5.43;0.98;;;;;21.70;100525.00;;;;13116384;22;20174;-76
2022/09/15 12:55:03;;;;;;;3.63;1.10;;;;;22.40;100532.00;;;;13063179;22;20166;-76
2022/09/15 13:00:19;;;;;;;3.13;1.17;;;;;23.10;100542.00;;;;13015239;22;20521;-76
2022/09/15 13:05:42;;;;;;;3.72;1.17;;;;;23.20;100543.00;;;;13038762;22;20171;-77
2022/09/15 13:11:01;;;;;;;2.42;0.95;;;;;23.30;100536.00;;;;13015582;22;20206;-77
2022/09/15 13:16:09;;;;;;;4.30;1.02;;;;;24.40;100529.00;;;;13035333;22;20229;-77
2022/09/15 13:21:15;;;;;;;4.18;1.02;;;;;23.40;100530.00;;;;13057341;22;20321;-77
2022/09/15 13:26:22;;;;;;;5.18;1.40;;;;;24.20;100517.00;;;;13080008;22;20174;-77
2022/09/15 13:31:34;;;;;;;3.70;1.40;;;;;24.10;100522.00;;;;13067030;22;20815;-77
2022/09/15 13:37:01;;;;;;;12.95;4.65;;;;;23.70;100513.00;;;;13015387;22;20258;-76
2022/09/15 13:42:43;;;;;;;6.38;1.15;;;;;23.90;100523.00;;;;13009703;22;20195;-76
2022/09/15 13:47:50;;;;;;;6.00;1.27;;;;;23.70;100508.00;;;;13085593;22;20170;-76
2022/09/15 13:52:57;;;;;;;6.65;2.10;;;;;23.00;100512.00;;;;13032377;22;20176;-76
2022/09/15 13:58:02;;;;;;;5.35;1.40;;;;;21.50;100519.00;;;;13011804;22;20759;-76
2022/09/15 14:03:39;;;;;;;3.85;1.20;;;;;21.60;100518.00;;;;13037002;22;20167;-75
2022/09/15 14:08:42;;;;;;;3.65;0.95;;;;;21.20;100520.00;;;;12987343;22;20232;-76
2022/09/15 14:13:46;;;;;;;4.53;1.10;;;;;20.10;100508.00;;;;13084454;22;20171;-76
2022/09/15 14:18:47;;;;;;;4.05;1.10;;;;;19.10;100525.00;;;;13113844;22;20794;-76
2022/09/15 14:23:54;;;;;;;4.10;1.00;;;;;18.60;100529.00;;;;13035817;22;20377;-75
2022/09/15 14:29:00;;;;;;;2.00;0.88;;;;;18.60;100528.00;;;;13057901;22;20220;-76
2022/09/15 14:34:06;;;;;;;3.97;1.00;;;;;18.70;100522.00;;;;13072592;22;20182;-76
2022/09/15 14:39:10;;;;;;;5.45;1.20;;;;;18.60;100540.00;;;;13014114;22;20191;-76
2022/09/15 14:44:38;;;;;;;5.60;1.38;;;;;18.60;100539.00;;;;13062729;22;20251;-75
2022/09/15 14:50:21;;;;;;;7.18;1.15;;;;;18.70;100539.00;;;;13066444;22;20300;-76
2022/09/15 14:55:29;;;;;;;4.20;1.23;;;;;18.70;100536.00;;;;13087458;22;20163;-76
2022/09/15 15:00:50;;;;;;;3.97;1.25;;;;;18.40;100541.00;;;;13089510;22;20544;-76
2022/09/15 15:06:01;;;;;;;6.43;1.20;;;;;18.20;100547.00;;;;13064223;22;20174;-76
2022/09/15 15:11:23;;;;;;;5.20;1.35;;;;;17.90;100557.00;;;;13118423;22;20184;-76
2022/09/15 15:16:27;;;;;;;6.63;1.50;;;;;17.70;100563.00;;;;13042083;22;20176;-76
2022/09/15 15:21:36;;;;;;;5.90;1.55;;;;;17.70;100558.00;;;;12990695;22;20569;-76
2022/09/15 15:26:41;;;;;;;9.20;1.25;;;;;17.70;100565.00;;;;13016180;22;20179;-76
2022/09/15 15:31:42;;;;;;;2.72;1.10;;;;;17.50;100566.00;;;;13041811;22;20183;-76
2022/09/15 15:36:44;;;;;;;4.57;1.10;;;;;17.40;100572.00;;;;13116819;22;20212;-76
2022/09/15 15:41:45;;;;;;;4.13;0.85;;;;;17.50;100576.00;;;;13041434;22;20579;-76
2022/09/15 15:46:50;;;;;;;2.97;1.15;;;;;17.50;100569.00;;;;13087372;22;20164;-75
2022/09/15 15:51:54;;;;;;;3.13;1.55;;;;;17.40;100577.00;;;;13063491;22;20159;-76
2022/09/15 15:57:18;;;;;;;1.10;0.98;;;;;17.40;100577.00;;;;13054543;22;20611;-74
2022/09/15 16:02:20;;;;;;;4.57;1.55;;;;;17.30;100579.00;;;;13041203;22;20221;-74
2022/09/15 16:07:22;;;;;;;2.50;1.40;;;;;17.20;100580.00;;;;13087362;22;20206;-74
2022/09/15 16:12:24;;;;;;;2.92;1.30;;;;;17.10;100575.00;;;;13060351;22;20164;-74
2022/09/15 16:17:25;;;;;;;3.97;1.70;;;;;17.00;100580.00;;;;13062325;22;20502;-74
2022/09/15 16:22:26;;;;;;;4.03;1.63;;;;;16.90;100577.00;;;;13062625;22;20210;-74
2022/09/15 16:27:29;;;;;;;3.55;1.38;;;;;16.90;100578.00;;;;13016029;22;20178;-73
2022/09/15 16:32:31;;;;;;;3.95;1.90;;;;;16.70;100586.00;;;;13087773;22;20209;-75
2022/09/15 16:37:32;;;;;;;4.57;1.48;;;;;16.60;100587.00;;;;13035983;22;20171;-74
2022/09/15 16:42:33;;;;;;;4.82;1.50;;;;;16.60;100595.00;;;;12990185;22;20264;-73
2022/09/15 16:47:35;;;;;;;6.97;1.60;;;;;16.80;100586.00;;;;13033865;22;20191;-73
2022/09/15 16:52:36;;;;;;;4.70;1.27;;;;;16.80;100588.00;;;;13034806;22;20220;-73
2022/09/15 16:57:37;;;;;;;3.88;1.33;;;;;16.80;100587.00;;;;13014338;22;20178;-73
2022/09/15 17:02:38;;;;;;;6.60;1.52;;;;;16.70;100587.00;;;;13012784;22;20948;-74
2022/09/15 17:07:39;;;;;;;2.67;1.40;;;;;16.60;100598.00;;;;13036530;22;20187;-73
2022/09/15 17:12:41;;;;;;;1.58;1.05;;;;;16.30;100599.00;;;;13038684;22;20175;-74
2022/09/15 17:17:42;;;;;;;5.60;1.75;;;;;16.10;100599.00;;;;13059657;22;20583;-73
2022/09/15 17:22:45;;;;;;;4.63;1.58;;;;;16.00;100597.00;;;;13058982;22;20193;-73
2022/09/15 17:27:48;;;;;;;3.65;1.38;;;;;16.00;100597.00;;;;13058287;22;20203;-73
2022/09/15 17:32:50;;;;;;;1.42;1.25;;;;;15.90;100600.00;;;;13023817;22;20274;-73
2022/09/15 17:37:52;;;;;;;4.00;1.13;;;;;15.80;100600.00;;;;13045861;22;20479;-74
2022/09/15 17:42:53;;;;;;;3.17;1.30;;;;;15.80;100605.00;;;;12997779;22;20201;-74
2022/09/15 17:47:55;;;;;;;3.17;1.17;;;;;15.70;100604.00;;;;13023260;22;20171;-74
2022/09/15 17:52:56;;;;;;;4.15;1.38;;;;;15.60;100595.00;;;;13071028;22;20602;-74
2022/09/15 17:58:00;;;;;;;5.00;1.73;;;;;15.60;100604.00;;;;13048155;22;21072;-74
2022/09/15 18:03:04;;;;;;;3.45;1.40;;;;;15.50;100603.00;;;;13025165;22;20227;-74
2022/09/15 18:08:08;;;;;;;5.25;2.13;;;;;15.50;100597.00;;;;13051625;22;20255;-73
2022/09/15 18:13:14;;;;;;;3.95;1.25;;;;;15.40;100606.00;;;;13023731;22;20193;-74
2022/09/15 18:18:21;;;;;;;6.68;1.23;;;;;15.40;100598.00;;;;13098421;22;20638;-73
2022/09/15 18:23:24;;;;;;;3.72;1.00;;;;;15.40;100608.00;;;;13070095;22;20243;-73
2022/09/15 18:28:26;;;;;;;4.15;1.15;;;;;15.30;100611.00;;;;13069801;22;20160;-74
2022/09/15 18:33:27;;;;;;;5.50;1.63;;;;;15.30;100616.00;;;;13045549;22;20206;-74
2022/09/15 18:38:28;;;;;;;3.13;1.10;;;;;15.30;100620.00;;;;13022709;22;20606;-74
2022/09/15 18:43:29;;;;;;;4.68;1.20;;;;;15.20;100625.00;;;;13024032;22;20912;-74
2022/09/15 18:48:30;;;;;;;10.43;1.60;;;;;15.20;100614.00;;;;13048137;22;20178;-74
2022/09/15 18:53:34;;;;;;;5.90;1.38;;;;;15.20;100622.00;;;;13045427;22;20927;-73
2022/09/15 18:58:36;;;;;;;6.90;1.30;;;;;15.10;100624.00;;;;13070127;22;20254;-74
2022/09/15 19:03:39;;;;;;;4.07;1.38;;;;;15.10;100626.00;;;;12998441;22;20179;-74
2022/09/15 19:08:45;;;;;;;5.68;1.50;;;;;15.10;100629.00;;;;13069896;22;20190;-74
2022/09/15 19:13:46;;;;;;;4.80;1.70;;;;;15.10;100627.00;;;;13021640;22;20195;-74
2022/09/15 19:18:48;;;;;;;3.40;1.70;;;;;15.20;100630.00;;;;13023628;22;20168;-74
2022/09/15 19:23:50;;;;;;;5.28;1.80;;;;;15.10;100644.00;;;;12999993;22;20183;-74
2022/09/15 19:28:51;;;;;;;5.15;1.48;;;;;15.10;100634.00;;;;13073109;22;20477;-74
2022/09/15 19:33:52;;;;;;;4.50;1.35;;;;;15.00;100647.00;;;;13021696;22;20187;-74
2022/09/15 19:38:54;;;;;;;4.10;1.40;;;;;15.00;100652.00;;;;13047587;22;20212;-73
2022/09/15 19:43:56;;;;;;;6.40;1.40;;;;;15.00;100653.00;;;;13035481;22;20170;-73
2022/09/15 19:49:01;;;;;;;5.63;1.30;;;;;15.00;100655.00;;;;13061246;22;20171;-74
2022/09/15 19:54:02;;;;;;;5.40;1.30;;;;;15.00;100656.00;;;;13038499;22;20498;-73
2022/09/15 19:59:05;;;;;;;9.33;1.30;;;;;14.90;100653.00;;;;13088696;22;20548;-74
2022/09/15 20:04:07;;;;;;;4.18;1.33;;;;;14.90;100658.00;;;;13014484;22;20546;-74
2022/09/15 20:09:09;;;;;;;6.87;1.53;;;;;14.90;100655.00;;;;13088736;22;20239;-74
2022/09/15 20:14:10;;;;;;;5.60;1.20;;;;;14.90;100661.00;;;;13086111;22;20175;-74
2022/09/15 20:19:14;;;;;;;9.80;1.23;;;;;14.80;100653.00;;;;13085792;22;20630;-74
2022/09/15 20:24:15;;;;;;;5.03;1.37;;;;;14.80;100662.00;;;;13060046;22;20172;-74
2022/09/15 20:29:16;;;;;;;3.10;1.38;;;;;14.80;100663.00;;;;13014467;22;20175;-74
2022/09/15 20:34:17;;;;;;;4.57;1.30;;;;;14.80;100675.00;;;;13038347;22;20220;-73
2022/09/15 20:39:21;;;;;;;8.10;1.50;;;;;14.70;100659.00;;;;13065457;22;20191;-73
2022/09/15 20:44:22;;;;;;;2.40;1.20;;;;;14.70;100667.00;;;;13014876;22;20801;-74
2022/09/15 20:49:24;;;;;;;5.60;1.58;;;;;14.70;100658.00;;;;13113080;22;20191;-73
2022/09/15 20:54:26;;;;;;;12.30;1.77;;;;;14.60;100663.00;;;;13039421;22;20247;-73
2022/09/15 20:59:27;;;;;;;7.50;1.47;;;;;14.50;100676.00;;;;13038828;22;20199;-73
2022/09/15 21:04:29;;;;;;;7.80;1.80;;;;;14.50;100673.00;;;;13012289;22;20179;-74
2022/09/15 21:09:30;;;;;;;7.63;1.47;;;;;14.50;100667.00;;;;13084669;22;20624;-74
2022/09/15 21:14:31;;;;;;;9.27;1.80;;;;;14.50;100673.00;;;;13040356;22;20167;-74
2022/09/15 21:19:33;;;;;;;3.40;1.37;;;;;14.50;100675.00;;;;13058980;22;20187;-74
2022/09/15 21:24:34;;;;;;;7.70;1.83;;;;;14.40;100677.00;;;;13034842;22;20164;-74
2022/09/15 21:29:35;;;;;;;7.63;1.63;;;;;14.40;100685.00;;;;13013005;22;20172;-74
2022/09/15 21:34:36;;;;;;;4.73;1.97;;;;;14.40;100679.00;;;;13039058;22;20168;-74
2022/09/15 21:39:38;;;;;;;3.83;1.23;;;;;14.30;100681.00;;;;13061268;22;20190;-74
2022/09/15 21:44:39;;;;;;;6.53;1.30;;;;;14.30;100680.00;;;;13037872;22;20168;-74
2022/09/15 21:49:41;;;;;;;6.37;1.47;;;;;14.30;100680.00;;;;13083632;22;20190;-73
2022/09/15 21:54:42;;;;;;;4.83;1.63;;;;;14.30;100689.00;;;;13013607;22;20171;-73
2022/09/15 21:59:43;;;;;;;6.10;1.90;;;;;14.30;100695.00;;;;13084491;22;20649;-73
2022/09/15 22:04:45;;;;;;;7.00;1.50;;;;;14.30;100697.00;;;;13010420;22;20498;-73
2022/09/15 22:09:46;;;;;;;6.20;1.60;;;;;14.30;100705.00;;;;13029247;22;20199;-73
2022/09/15 22:14:47;;;;;;;2.70;1.30;;;;;14.30;100701.00;;;;13026370;22;20171;-73
2022/09/15 22:19:48;;;;;;;6.03;1.70;;;;;14.40;100704.00;;;;13025965;22;20613;-73
2022/09/15 22:24:49;;;;;;;4.83;1.80;;;;;14.40;100698.00;;;;13073704;22;21015;-73
2022/09/15 22:29:51;;;;;;;5.67;1.27;;;;;14.40;100686.00;;;;13028984;22;20183;-73
2022/09/15 22:34:52;;;;;;;6.17;2.17;;;;;14.40;100692.00;;;;13024542;22;20258;-73
2022/09/15 22:39:53;;;;;;;3.37;1.57;;;;;14.50;100689.00;;;;13047430;22;20258;-73
2022/09/15 22:45:01;;;;;;;3.67;1.30;;;;;14.40;100680.00;;;;13025789;22;20172;-73
2022/09/15 22:50:03;;;;;;;6.00;1.53;;;;;14.40;100686.00;;;;12996885;22;20178;-73
2022/09/15 22:55:05;;;;;;;12.77;1.77;;;;;14.40;100687.00;;;;13046947;22;20163;-73
2022/09/15 23:00:07;;;;;;;3.13;1.40;;;;;14.30;100676.00;;;;13050132;22;20229;-73
2022/09/15 23:05:09;;;;;;;7.33;1.63;;;;;14.20;100689.00;;;;13026274;22;20254;-73
2022/09/15 23:10:10;;;;;;;8.40;1.80;;;;;14.20;100685.00;;;;13028862;22;20195;-73
2022/09/15 23:15:12;;;;;;;6.07;1.30;;;;;14.10;100684.00;;;;13049701;22;20168;-73
2022/09/15 23:20:14;;;;;;;4.67;1.20;;;;;14.00;100683.00;;;;13049956;22;20234;-73
2022/09/15 23:25:16;;;;;;;9.80;1.57;;;;;14.00;100691.00;;;;13102826;22;20171;-73
2022/09/15 23:30:17;;;;;;;6.00;1.57;;;;;13.90;100679.00;;;;13027959;22;20622;-73
2022/09/15 23:35:18;;;;;;;6.83;1.43;;;;;13.90;100681.00;;;;13103269;22;20164;-73
2022/09/15 23:40:19;;;;;;;5.53;2.20;;;;;13.70;100671.00;;;;13000346;22;20195;-73
2022/09/15 23:45:20;;;;;;;7.80;1.43;;;;;13.60;100675.00;;;;13029337;22;20274;-73
2022/09/15 23:50:22;;;;;;;8.00;2.57;;;;;13.50;100678.00;;;;12979158;22;20270;-73
2022/09/15 23:55:23;;;;;;;8.73;1.27;;;;;13.40;100669.00;;;;13029131;22;20164;-73
